createdAt,value
2023-05-25T00:01:16.216Z,77.67
2023-05-25T00:06:20.059Z,77.05
2023-05-25T00:11:23.478Z,77.21
2023-05-25T00:16:25.490Z,77.11
2023-05-25T00:21:27.542Z,76.97
2023-05-25T00:26:29.245Z,76.63
2023-05-25T00:31:33.538Z,76.63
2023-05-25T00:36:35.497Z,76.16
2023-05-25T00:41:41.591Z,76.09
2023-05-25T00:46:52.075Z,76.04
2023-05-25T00:51:54.265Z,76.01
2023-05-25T00:57:06.622Z,76.06
2023-05-25T01:02:11.073Z,75.77
2023-05-25T01:07:18.715Z,75.86
2023-05-25T01:12:22.832Z,75.73
2023-05-25T01:17:26.595Z,75.91
2023-05-25T01:22:32.600Z,75.54
2023-05-25T01:27:46.935Z,75.47
2023-05-25T01:32:49.487Z,75.28
2023-05-25T01:37:52.460Z,75.36
2023-05-25T01:42:54.337Z,75.52
2023-05-25T01:48:30.526Z,75.63
2023-05-25T01:53:52.655Z,75.95
2023-05-25T01:58:57.910Z,76.19
2023-05-25T02:04:01.192Z,76.14
2023-05-25T02:09:03.350Z,76.19
2023-05-25T02:14:05.717Z,76.27
2023-05-25T02:19:07.488Z,76.25
2023-05-25T02:24:10.313Z,76.29
2023-05-25T02:29:12.295Z,76.61
2023-05-25T02:34:14.252Z,76.57
2023-05-25T02:39:16.120Z,76.82
2023-05-25T02:44:18.125Z,76.32
2023-05-25T02:49:20.107Z,76.24
2023-05-25T02:54:22.397Z,76.31
2023-05-25T02:59:25.123Z,76.40
2023-05-25T03:04:27.288Z,76.65
2023-05-25T03:09:29.173Z,76.83
2023-05-25T03:14:31.222Z,76.55
2023-05-25T03:19:38.229Z,76.43
2023-05-25T03:24:41.813Z,76.38
2023-05-25T03:29:44.239Z,76.42
2023-05-25T03:34:46.174Z,76.49
2023-05-25T03:39:49.713Z,76.58
2023-05-25T03:44:52.478Z,76.82
2023-05-25T03:49:54.422Z,76.98
2023-05-25T03:54:56.774Z,77.32
2023-05-25T03:59:59.386Z,77.44
2023-05-25T04:05:01.332Z,78.23
2023-05-25T04:10:04.836Z,78.96
2023-05-25T04:15:09.548Z,79.03
2023-05-25T04:20:22.783Z,79.23
2023-05-25T04:25:27.947Z,79.10
2023-05-25T04:30:31.938Z,78.78
2023-05-25T04:35:45.565Z,78.82
2023-05-25T04:40:48.316Z,78.84
2023-05-25T04:45:51.502Z,78.75
2023-05-25T04:50:55.981Z,78.90
2023-05-25T04:55:59.023Z,78.80
2023-05-25T05:01:00.857Z,78.82
2023-05-25T05:06:03.513Z,78.75
2023-05-25T05:11:06.444Z,79.07
2023-05-25T05:16:09.026Z,79.07
2023-05-25T05:21:10.846Z,79.30
2023-05-25T05:26:15.120Z,78.53
2023-05-25T05:31:18.526Z,78.33
2023-05-25T05:36:20.890Z,78.55
2023-05-25T05:41:23.491Z,78.42
2023-05-25T05:46:25.554Z,77.78
2023-05-25T05:51:27.252Z,77.93
2023-05-25T05:56:29.070Z,77.90
2023-05-25T06:01:31.639Z,77.16
2023-05-25T06:06:35.101Z,76.91
2023-05-25T06:11:39.929Z,77.03
2023-05-25T06:16:43.701Z,76.87
2023-05-25T06:21:45.650Z,76.71
2023-05-25T06:26:47.411Z,76.61
2023-05-25T06:31:50.051Z,76.23
2023-05-25T06:36:52.863Z,76.55
2023-05-25T06:41:55.281Z,76.74
2023-05-25T06:47:05.956Z,76.95
2023-05-25T06:52:07.685Z,77.43
2023-05-25T06:57:09.363Z,77.09
2023-05-25T07:02:11.404Z,76.40
2023-05-25T07:07:14.177Z,76.44
2023-05-25T07:12:15.888Z,76.35
2023-05-25T07:17:17.571Z,75.88
2023-05-25T07:22:19.653Z,74.56
2023-05-25T07:27:21.346Z,74.84
2023-05-25T07:32:23.056Z,74.77
2023-05-25T07:37:24.885Z,74.49
2023-05-25T07:42:33.071Z,74.43
2023-05-25T07:47:34.885Z,74.53
2023-05-25T07:52:38.317Z,74.15
2023-05-25T07:57:40.389Z,74.34
2023-05-25T08:02:42.254Z,74.13
2023-05-25T08:07:46.088Z,74.43
2023-05-25T08:12:50.115Z,74.30
2023-05-25T08:17:52.333Z,73.91
2023-05-25T08:22:54.513Z,73.30
2023-05-25T08:27:56.300Z,72.56
2023-05-25T08:32:58.047Z,71.17
2023-05-25T08:37:59.869Z,70.92
2023-05-25T08:43:01.710Z,71.35
2023-05-25T08:48:09.384Z,71.08
2023-05-25T08:53:12.755Z,71.12
2023-05-25T08:58:19.545Z,71.00
2023-05-25T09:03:22.401Z,70.45
2023-05-25T09:08:25.079Z,70.26
2023-05-25T09:13:27.081Z,70.19
2023-05-25T09:18:29.030Z,70.37
2023-05-25T09:23:31.566Z,69.86
2023-05-25T09:28:33.278Z,69.43
2023-05-25T09:33:40.032Z,69.44
2023-05-25T09:38:42.168Z,69.19
2023-05-25T09:43:54.791Z,68.19
2023-05-25T09:49:10.621Z,67.30
2023-05-25T09:54:12.935Z,66.90
2023-05-25T09:59:15.134Z,66.73
2023-05-25T10:04:16.922Z,66.49
2023-05-25T10:09:20.269Z,65.88
2023-05-25T10:14:30.325Z,65.91
2023-05-25T10:19:41.389Z,65.82
2023-05-25T10:24:45.175Z,65.44
2023-05-25T10:29:49.733Z,65.11
2023-05-25T10:34:52.675Z,65.02
2023-05-25T10:39:55.612Z,65.19
2023-05-25T10:44:57.935Z,64.87
2023-05-25T10:50:02.476Z,64.92
2023-05-25T10:55:15.353Z,64.43
2023-05-25T11:00:19.428Z,64.74
2023-05-25T11:05:31.263Z,64.29
2023-05-25T11:10:48.099Z,64.25
2023-05-25T11:16:26.140Z,65.03
2023-05-25T11:21:32.223Z,63.83
2023-05-25T11:26:35.642Z,62.62
2023-05-25T11:31:42.235Z,62.73
2023-05-25T11:36:45.625Z,63.18
2023-05-25T11:41:55.401Z,62.85
2023-05-25T11:47:04.669Z,63.94
2023-05-25T11:52:07.534Z,64.77
2023-05-25T11:57:20.681Z,65.73
2023-05-25T12:02:24.030Z,65.74
2023-05-25T12:07:27.556Z,65.89
2023-05-25T12:12:29.269Z,66.12
2023-05-25T12:17:31.034Z,65.90
2023-05-25T12:22:33.544Z,65.59
2023-05-25T12:27:35.794Z,65.34
2023-05-25T12:33:03.863Z,64.84
2023-05-25T12:38:14.633Z,64.30
2023-05-25T12:43:17.626Z,64.89
2023-05-25T12:48:26.504Z,65.33
2023-05-25T12:53:29.137Z,65.84
2023-05-25T12:58:30.947Z,65.46
2023-05-25T13:03:33.173Z,65.52
2023-05-25T13:08:34.894Z,65.77
2023-05-25T13:13:37.461Z,66.13
2023-05-25T13:18:40.106Z,66.31
2023-05-25T13:23:41.828Z,66.26
2023-05-25T13:28:43.541Z,66.59
2023-05-25T13:33:45.647Z,66.58
2023-05-25T13:38:47.380Z,66.34
2023-05-25T13:43:49.600Z,66.97
2023-05-25T13:48:51.307Z,66.71
2023-05-25T13:53:53.626Z,66.14
2023-05-25T13:58:55.652Z,66.55
2023-05-25T14:03:59.925Z,66.36
2023-05-25T14:09:01.794Z,66.67
2023-05-25T14:14:13.683Z,66.68
2023-05-25T14:19:18.655Z,67.14
2023-05-25T14:24:20.386Z,66.87
2023-05-25T14:29:22.087Z,67.36
2023-05-25T14:34:23.732Z,67.95
2023-05-25T14:39:25.902Z,68.38
2023-05-25T14:44:28.394Z,67.76
2023-05-25T14:49:30.060Z,67.04
2023-05-25T14:54:31.778Z,66.54
2023-05-25T14:59:33.633Z,66.36
2023-05-25T15:04:35.725Z,66.63
2023-05-25T15:09:42.279Z,67.00
2023-05-25T15:14:43.937Z,67.47
2023-05-25T15:19:45.863Z,67.49
2023-05-25T15:24:47.617Z,67.57
2023-05-25T15:29:49.262Z,67.36
2023-05-25T15:34:50.960Z,67.53
2023-05-25T15:39:52.690Z,67.46
2023-05-25T15:44:54.406Z,67.35
2023-05-25T15:49:56.150Z,67.51
2023-05-25T15:54:58.171Z,67.38
2023-05-25T15:59:59.824Z,67.72
2023-05-25T16:05:01.653Z,68.13
2023-05-25T16:10:03.684Z,68.16
2023-05-25T16:15:06.498Z,68.16
2023-05-25T16:20:09.343Z,67.43
2023-05-25T16:25:11.492Z,67.42
2023-05-25T16:30:13.843Z,66.79
2023-05-25T16:35:15.799Z,67.04
2023-05-25T16:40:17.635Z,66.91
2023-05-25T16:45:21.079Z,66.90
2023-05-25T16:50:22.864Z,67.23
2023-05-25T16:55:24.680Z,67.55
2023-05-25T17:00:26.385Z,67.58
2023-05-25T17:05:28.114Z,67.83
2023-05-25T17:10:29.789Z,68.33
2023-05-25T17:15:31.659Z,68.98
2023-05-25T17:20:33.396Z,69.42
2023-05-25T17:25:35.103Z,69.48
2023-05-25T17:30:37.125Z,69.73
2023-05-25T17:35:38.868Z,69.90
2023-05-25T17:40:40.594Z,70.11
2023-05-25T17:45:42.385Z,70.25
2023-05-25T17:50:44.558Z,70.65
2023-05-25T17:55:46.684Z,70.94
2023-05-25T18:00:49.105Z,71.06
2023-05-25T18:05:51.214Z,71.49
2023-05-25T18:10:53.228Z,71.42
2023-05-25T18:15:55.017Z,71.80
2023-05-25T18:20:56.674Z,72.00
2023-05-25T18:25:58.614Z,72.19
2023-05-25T18:31:00.365Z,72.60
2023-05-25T18:36:02.227Z,72.93
2023-05-25T18:41:04.170Z,73.09
2023-05-25T18:46:05.925Z,73.44
2023-05-25T18:51:07.651Z,73.67
2023-05-25T18:56:09.334Z,74.03
2023-05-25T19:01:11.055Z,74.37
2023-05-25T19:06:12.739Z,74.44
2023-05-25T19:11:15.577Z,74.50
2023-05-25T19:16:17.450Z,74.31
2023-05-25T19:21:19.369Z,74.66
2023-05-25T19:26:21.042Z,75.05
2023-05-25T19:31:23.586Z,75.18
2023-05-25T19:36:25.809Z,75.53
2023-05-25T19:41:27.736Z,75.65
2023-05-25T19:46:29.752Z,75.96
2023-05-25T19:51:32.974Z,76.22
2023-05-25T19:56:34.992Z,76.53
2023-05-25T20:01:36.775Z,76.66
2023-05-25T20:06:38.716Z,76.48
2023-05-25T20:11:41.605Z,76.79
2023-05-25T20:16:43.510Z,76.79
2023-05-25T20:21:45.335Z,77.06
2023-05-25T20:26:47.051Z,77.18
2023-05-25T20:31:49.508Z,77.53
2023-05-25T20:36:51.228Z,77.69
2023-05-25T20:41:53.216Z,78.00
2023-05-25T20:46:55.487Z,78.14
2023-05-25T20:51:57.181Z,78.21
2023-05-25T20:57:00.977Z,78.38
2023-05-25T21:02:03.935Z,78.43
2023-05-25T21:07:05.782Z,78.47
2023-05-25T21:12:08.357Z,78.62
2023-05-25T21:17:10.839Z,78.73
2023-05-25T21:22:13.452Z,78.78
2023-05-25T21:27:15.165Z,78.70
2023-05-25T21:32:18.250Z,78.52
2023-05-25T21:37:20.189Z,78.49
2023-05-25T21:42:21.906Z,78.14
2023-05-25T21:47:27.403Z,78.34
2023-05-25T21:52:30.667Z,78.19
2023-05-25T21:57:33.747Z,78.16
2023-05-25T22:02:35.513Z,78.16
2023-05-25T22:07:37.261Z,78.41
2023-05-25T22:12:38.991Z,78.22
2023-05-25T22:17:40.764Z,78.21
2023-05-25T22:22:42.501Z,78.05
2023-05-25T22:27:44.372Z,77.97
2023-05-25T22:32:46.101Z,77.99
2023-05-25T22:37:48.595Z,77.99
2023-05-25T22:42:50.598Z,77.72
2023-05-25T22:47:52.437Z,78.05
2023-05-25T22:52:54.225Z,78.07
2023-05-25T22:57:56.226Z,78.05
2023-05-25T23:02:58.013Z,78.07
2023-05-25T23:07:59.905Z,78.17
2023-05-25T23:13:07.286Z,78.28
2023-05-25T23:18:09.078Z,78.29
2023-05-25T23:23:10.984Z,78.38
2023-05-25T23:28:12.719Z,78.21
2023-05-25T23:33:15.099Z,78.19
2023-05-25T23:38:16.804Z,78.10
2023-05-25T23:43:19.304Z,78.16
2023-05-25T23:48:21.463Z,78.02
2023-05-25T23:53:24.422Z,78.24
2023-05-25T23:58:26.109Z,78.31
